Time;durP1;ratioP1;P1;durP2;ratioP2;P2;SDS_P1;SDS_P2;PMS_P1;PMS_P2;Temp;Humidity;BMP_temperature;BMP_pressure;BME280_temperature;BME280_humidity;BME280_pressure;Samples;Min_cycle;Max_cycle;Signal;HPM_P1;HPM_P2
2021/12/14 00:02:10;;;;;;;28.30;13.98;;;8.60;99.90;;;;;;5005842;28;20113;-42
2021/12/14 00:04:37;;;;;;;20.27;11.20;;;8.60;99.90;;;;;;5003499;28;20029;-45
2021/12/14 00:07:06;;;;;;;24.23;11.82;;;8.50;99.90;;;;;;5010403;28;20022;-48
2021/12/14 00:09:36;;;;;;;21.77;10.93;;;8.50;99.90;;;;;;5006784;28;20029;-45
2021/12/14 00:12:27;;;;;;;23.73;12.02;;;8.50;99.90;;;;;;5010504;28;20029;-45
2021/12/14 00:15:03;;;;;;;23.85;11.40;;;8.50;99.90;;;;;;5010516;28;20108;-44
2021/12/14 00:17:35;;;;;;;24.40;12.20;;;8.50;99.90;;;;;;5010779;28;20030;-47
2021/12/14 00:20:05;;;;;;;27.10;13.13;;;8.50;99.90;;;;;;5009126;28;20022;-44
2021/12/14 00:24:05;;;;;;;26.65;12.18;;;8.50;99.90;;;;;;5010611;28;20033;-44
2021/12/14 00:25:17;;;;;;;25.30;11.83;;;8.50;99.90;;;;;;5010179;28;20030;-48
2021/12/14 00:27:42;;;;;;;27.92;12.82;;;8.40;99.90;;;;;;5010645;28;20555;-44
2021/12/14 00:30:08;;;;;;;23.50;12.05;;;8.40;99.90;;;;;;5007364;28;20496;-47
2021/12/14 00:32:36;;;;;;;23.83;12.05;;;8.40;99.90;;;;;;5010711;28;20057;-45
2021/12/14 00:35:10;;;;;;;26.00;11.93;;;8.40;99.90;;;;;;5009096;28;20532;-45
2021/12/14 00:37:38;;;;;;;26.25;11.35;;;8.40;99.90;;;;;;5010857;28;20034;-44
2021/12/14 00:40:27;;;;;;;29.13;13.77;;;8.40;99.90;;;;;;5014227;28;20053;-45
2021/12/14 00:42:55;;;;;;;22.25;11.60;;;8.40;99.90;;;;;;5014430;28;20380;-46
2021/12/14 00:45:23;;;;;;;27.38;12.48;;;8.40;99.90;;;;;;5014355;28;20104;-44
2021/12/14 00:47:50;;;;;;;24.33;11.93;;;8.30;99.90;;;;;;5014141;28;20052;-43
2021/12/14 00:50:17;;;;;;;23.80;11.57;;;8.40;99.90;;;;;;5012557;28;20062;-44
2021/12/14 00:52:43;;;;;;;23.25;11.98;;;8.30;99.90;;;;;;5014105;28;20037;-47
2021/12/14 00:55:16;;;;;;;26.23;12.02;;;8.30;99.90;;;;;;5014058;28;20022;-43
2021/12/14 00:57:42;;;;;;;29.30;13.15;;;8.30;99.90;;;;;;5013911;28;20080;-48
2021/12/14 01:00:11;;;;;;;23.70;11.00;;;8.30;99.90;;;;;;5013988;28;20417;-42
2021/12/14 01:02:38;;;;;;;20.48;10.73;;;8.30;99.90;;;;;;5013784;28;20022;-45
2021/12/14 01:05:28;;;;;;;23.58;11.68;;;8.30;99.90;;;;;;5012547;28;20058;-47
2021/12/14 01:07:55;;;;;;;22.70;10.68;;;8.30;99.90;;;;;;5013910;28;20072;-46
2021/12/14 01:10:32;;;;;;;25.65;11.93;;;8.30;99.90;;;;;;5013563;28;20064;-45
2021/12/14 01:13:03;;;;;;;23.35;11.32;;;8.30;99.90;;;;;;5013785;28;20064;-45
2021/12/14 01:21:43;;;;;;;25.25;12.27;;;8.30;99.90;;;;;;5013443;28;20037;-46
2021/12/14 01:24:35;;;;;;;25.45;11.88;;;8.30;99.90;;;;;;4995413;28;20045;-44
2021/12/14 01:27:04;;;;;;;23.92;11.15;;;8.20;99.90;;;;;;4995556;28;20018;-43
2021/12/14 01:29:31;;;;;;;25.95;12.32;;;8.20;99.90;;;;;;5013483;28;20061;-47
2021/12/14 01:32:00;;;;;;;27.85;12.35;;;8.20;99.90;;;;;;4995668;28;20425;-44
2021/12/14 01:34:30;;;;;;;21.20;11.07;;;8.20;99.90;;;;;;5012060;28;20030;-45
2021/12/14 01:36:59;;;;;;;28.30;11.90;;;8.20;99.90;;;;;;5013318;28;20030;-44
2021/12/14 01:42:19;;;;;;;26.23;12.35;;;8.20;99.90;;;;;;5012811;28;20073;-42
2021/12/14 01:45:00;;;;;;;24.88;12.05;;;8.10;99.90;;;;;;5013172;28;20022;-46
2021/12/14 01:47:35;;;;;;;25.92;10.93;;;8.20;99.90;;;;;;5012884;28;20531;-45
2021/12/14 01:50:02;;;;;;;21.30;10.20;;;8.10;99.90;;;;;;5010697;28;20056;-45
2021/12/14 01:52:31;;;;;;;21.30;11.00;;;8.10;99.90;;;;;;5012847;28;20501;-42
2021/12/14 01:55:01;;;;;;;19.10;11.13;;;8.10;99.90;;;;;;5012998;28;20033;-47
2021/12/14 01:57:29;;;;;;;22.35;10.63;;;8.10;99.90;;;;;;5012882;28;20105;-47
2021/12/14 01:59:57;;;;;;;25.30;12.27;;;8.10;99.90;;;;;;5012744;28;20030;-43
2021/12/14 02:02:43;;;;;;;27.52;12.68;;;8.10;99.90;;;;;;5014399;28;20111;-47
2021/12/14 02:05:21;;;;;;;24.33;11.55;;;8.10;99.90;;;;;;5013280;28;20025;-44
2021/12/14 02:07:47;;;;;;;24.83;12.40;;;8.10;99.90;;;;;;5014482;28;20072;-47
2021/12/14 02:10:26;;;;;;;22.85;11.02;;;8.00;99.90;;;;;;5014422;28;20505;-42
2021/12/14 02:12:53;;;;;;;22.08;10.77;;;8.00;99.90;;;;;;5014331;28;20482;-47
2021/12/14 02:15:32;;;;;;;24.58;11.48;;;8.00;99.90;;;;;;5014247;28;20109;-47
2021/12/14 02:18:00;;;;;;;21.92;11.00;;;8.00;99.90;;;;;;5014198;28;20034;-43
2021/12/14 02:20:37;;;;;;;21.45;11.35;;;8.00;99.90;;;;;;5006750;28;20057;-46
2021/12/14 02:23:03;;;;;;;25.52;12.30;;;8.00;99.90;;;;;;5014416;28;20037;-48
2021/12/14 02:25:29;;;;;;;25.45;12.05;;;8.00;99.90;;;;;;5014249;28;20489;-45
2021/12/14 02:28:02;;;;;;;22.77;11.75;;;8.00;99.90;;;;;;5009796;28;20033;-45
2021/12/14 02:30:29;;;;;;;24.67;11.35;;;8.00;99.90;;;;;;4996371;28;20026;-47
2021/12/14 02:32:57;;;;;;;24.20;11.75;;;8.00;99.90;;;;;;5014086;28;20022;-47
2021/12/14 02:35:26;;;;;;;27.48;13.15;;;8.00;99.90;;;;;;5012750;28;20034;-44
2021/12/14 02:37:57;;;;;;;21.48;11.02;;;8.00;99.90;;;;;;4996408;28;20112;-46
2021/12/14 02:40:53;;;;;;;25.55;12.07;;;8.00;99.90;;;;;;5013825;28;20118;-43
2021/12/14 02:43:23;;;;;;;21.90;11.15;;;8.00;99.90;;;;;;5013542;28;20477;-45
2021/12/14 02:45:49;;;;;;;20.20;10.40;;;8.00;99.90;;;;;;5013809;28;20412;-43
2021/12/14 02:48:14;;;;;;;29.02;12.10;;;8.00;99.90;;;;;;4996050;28;20026;-46
2021/12/14 02:50:43;;;;;;;31.20;13.55;;;7.90;99.90;;;;;;5012394;28;20060;-45
2021/12/14 02:53:12;;;;;;;23.08;11.00;;;7.90;99.90;;;;;;5013613;28;20033;-45
2021/12/14 02:55:37;;;;;;;19.80;10.65;;;7.90;99.90;;;;;;5013600;28;20037;-44
2021/12/14 02:58:05;;;;;;;21.42;10.45;;;7.90;99.90;;;;;;5013511;28;20037;-45
2021/12/14 03:00:42;;;;;;;23.30;10.75;;;7.80;99.90;;;;;;5013354;28;20140;-45
2021/12/14 03:03:09;;;;;;;24.92;11.95;;;7.90;99.90;;;;;;5013326;28;20029;-43
2021/12/14 03:05:37;;;;;;;21.02;10.63;;;7.90;99.90;;;;;;5012322;28;20030;-42
2021/12/14 03:08:15;;;;;;;19.27;10.45;;;7.80;99.90;;;;;;5013254;28;20211;-45
2021/12/14 03:10:58;;;;;;;21.58;10.90;;;7.90;99.90;;;;;;5013414;28;20025;-49
2021/12/14 03:13:29;;;;;;;27.27;12.18;;;7.90;99.90;;;;;;5012395;28;20026;-45
2021/12/14 03:16:01;;;;;;;26.02;11.00;;;7.80;99.90;;;;;;5013435;28;20033;-46
2021/12/14 03:18:30;;;;;;;20.40;10.32;;;7.80;99.90;;;;;;5012110;28;20362;-43
2021/12/14 03:21:03;;;;;;;26.83;12.48;;;7.80;99.90;;;;;;5013263;28;20380;-41
2021/12/14 03:23:33;;;;;;;19.88;9.85;;;7.80;99.90;;;;;;5013018;28;20072;-42
2021/12/14 03:26:02;;;;;;;25.73;11.43;;;7.80;99.90;;;;;;5013174;28;20029;-44
2021/12/14 03:28:30;;;;;;;20.75;10.85;;;7.80;99.90;;;;;;5008154;28;20025;-48
2021/12/14 03:31:08;;;;;;;24.08;11.80;;;7.80;99.90;;;;;;5012963;28;20043;-45
2021/12/14 03:33:40;;;;;;;20.17;10.63;;;7.80;99.90;;;;;;5011574;28;20038;-48
2021/12/14 03:36:11;;;;;;;22.23;11.10;;;7.80;99.90;;;;;;5013206;28;20505;-46
2021/12/14 03:38:41;;;;;;;23.70;12.13;;;7.70;99.90;;;;;;5012766;28;20057;-43
2021/12/14 03:41:23;;;;;;;23.23;10.57;;;7.80;99.90;;;;;;5008977;28;20030;-45
2021/12/14 03:43:59;;;;;;;20.10;10.85;;;7.70;99.90;;;;;;5011384;28;20018;-44
2021/12/14 03:46:32;;;;;;;17.88;9.25;;;7.70;99.90;;;;;;5012779;28;20076;-44
2021/12/14 03:49:00;;;;;;;23.05;10.63;;;7.70;99.90;;;;;;5011512;28;20575;-49
2021/12/14 03:51:26;;;;;;;19.42;10.38;;;7.70;99.90;;;;;;5012692;28;20089;-46
2021/12/14 03:53:55;;;;;;;18.08;9.88;;;7.70;99.90;;;;;;5012807;28;20025;-46
2021/12/14 03:56:21;;;;;;;18.95;9.52;;;7.70;99.90;;;;;;5012759;28;20034;-49
2021/12/14 03:58:47;;;;;;;18.20;9.48;;;7.70;99.90;;;;;;5012628;28;20057;-45
2021/12/14 04:01:33;;;;;;;17.17;9.50;;;7.70;99.90;;;;;;5012860;28;20026;-44
2021/12/14 04:04:04;;;;;;;18.23;9.93;;;7.70;99.90;;;;;;5011364;28;20026;-46
2021/12/14 04:06:29;;;;;;;19.55;10.02;;;7.70;99.90;;;;;;5012380;28;20018;-46
2021/12/14 04:08:56;;;;;;;22.65;11.50;;;7.70;99.90;;;;;;5012572;28;20033;-47
2021/12/14 04:11:22;;;;;;;22.08;10.82;;;7.70;99.90;;;;;;5012591;28;20186;-44
2021/12/14 04:13:50;;;;;;;22.05;11.18;;;7.70;99.90;;;;;;5014768;28;20120;-44
2021/12/14 04:16:20;;;;;;;21.77;9.63;;;7.70;99.90;;;;;;5016547;28;20030;-46
2021/12/14 04:18:47;;;;;;;17.45;9.90;;;7.70;99.90;;;;;;5015227;28;20052;-44
2021/12/14 04:21:13;;;;;;;21.88;10.95;;;7.70;99.90;;;;;;5016499;28;20473;-44
2021/12/14 04:23:43;;;;;;;16.33;9.85;;;7.60;99.90;;;;;;5016361;28;20026;-42
2021/12/14 04:26:11;;;;;;;19.65;10.13;;;7.70;99.90;;;;;;4998952;28;20022;-45
2021/12/14 04:28:41;;;;;;;17.75;10.10;;;7.60;99.90;;;;;;5016305;28;20037;-47
2021/12/14 04:31:07;;;;;;;22.88;10.98;;;7.70;99.90;;;;;;5016327;28;20144;-43
2021/12/14 04:33:37;;;;;;;24.08;11.45;;;7.60;99.90;;;;;;5014786;28;20066;-45
2021/12/14 04:36:07;;;;;;;21.73;10.10;;;7.60;99.90;;;;;;5016463;28;20034;-45
2021/12/14 04:38:38;;;;;;;20.85;10.77;;;7.60;99.90;;;;;;5016159;28;20204;-44
2021/12/14 04:52:10;;;;;;;21.52;9.73;;;7.60;99.90;;;;;;5016205;28;20416;-43
2021/12/14 04:54:40;;;;;;;20.55;11.07;;;7.50;99.90;;;;;;5015617;28;20060;-42
2021/12/14 04:57:43;;;;;;;18.52;10.07;;;7.60;99.90;;;;;;5015909;28;20029;-44
2021/12/14 05:00:27;;;;;;;21.05;9.75;;;7.60;99.90;;;;;;5000059;28;20104;-44
2021/12/14 05:02:57;;;;;;;21.38;10.20;;;7.50;99.90;;;;;;5015402;28;20030;-44
2021/12/14 05:05:45;;;;;;;20.13;10.02;;;7.50;99.90;;;;;;5010652;28;20117;-44
2021/12/14 05:10:38;;;;;;;16.67;8.52;;;7.50;99.90;;;;;;5035132;28;20091;-41
2021/12/14 05:13:04;;;;;;;19.17;10.05;;;7.50;99.90;;;;;;5035110;28;20076;-42
2021/12/14 05:15:30;;;;;;;24.13;10.75;;;7.50;99.90;;;;;;5034811;28;20033;-44
2021/12/14 05:17:56;;;;;;;21.15;10.13;;;7.50;99.90;;;;;;5035134;28;20034;-45
2021/12/14 05:20:21;;;;;;;20.35;9.95;;;7.50;99.90;;;;;;5033735;28;20025;-45
2021/12/14 05:22:47;;;;;;;23.00;10.73;;;7.50;99.90;;;;;;5035190;28;20048;-44
2021/12/14 05:25:18;;;;;;;26.88;11.55;;;7.50;99.90;;;;;;5033552;28;20092;-44
2021/12/14 05:27:47;;;;;;;23.70;10.73;;;7.50;99.90;;;;;;5034609;28;20030;-44
2021/12/14 05:30:27;;;;;;;22.25;11.07;;;7.50;99.90;;;;;;5034989;28;20036;-44
2021/12/14 05:32:58;;;;;;;22.00;10.68;;;7.50;99.90;;;;;;5034899;28;20029;-45
2021/12/14 05:35:24;;;;;;;22.88;10.45;;;7.50;99.90;;;;;;5033353;28;20064;-45
2021/12/14 05:37:53;;;;;;;21.30;10.90;;;7.50;99.90;;;;;;5034738;28;20026;-42
2021/12/14 05:40:43;;;;;;;24.60;11.43;;;7.50;99.90;;;;;;5034818;28;20034;-42
2021/12/14 05:43:12;;;;;;;21.90;10.60;;;7.50;99.90;;;;;;5034443;28;20037;-45
2021/12/14 05:45:41;;;;;;;22.60;11.18;;;7.50;99.90;;;;;;5034553;28;20029;-42
2021/12/14 05:48:09;;;;;;;24.55;10.68;;;7.50;99.90;;;;;;5034270;28;20025;-42
2021/12/14 05:50:42;;;;;;;23.63;11.25;;;7.50;99.90;;;;;;5032847;28;20037;-43
2021/12/14 05:53:09;;;;;;;19.23;9.70;;;7.50;99.90;;;;;;5034440;28;20040;-47
2021/12/14 05:55:39;;;;;;;27.63;12.88;;;7.50;99.90;;;;;;5034302;28;20535;-43
2021/12/14 05:58:12;;;;;;;22.58;11.40;;;7.50;99.90;;;;;;5034513;28;20021;-42
2021/12/14 06:00:43;;;;;;;21.23;11.27;;;7.50;99.90;;;;;;5034149;28;20029;-42
2021/12/14 06:03:28;;;;;;;27.25;12.23;;;7.50;99.90;;;;;;5025596;28;20504;-42
2021/12/14 06:05:55;;;;;;;30.80;12.50;;;7.50;99.90;;;;;;5014296;28;20041;-45
2021/12/14 06:08:25;;;;;;;25.10;12.15;;;7.50;99.90;;;;;;5028311;28;20131;-43
2021/12/14 06:10:52;;;;;;;25.15;10.80;;;7.50;99.90;;;;;;5034147;28;20026;-44
2021/12/14 06:13:19;;;;;;;20.98;11.40;;;7.50;99.90;;;;;;5034182;28;20021;-46
2021/12/14 06:15:46;;;;;;;17.83;9.77;;;7.50;99.90;;;;;;5023544;28;20042;-41
2021/12/14 06:18:13;;;;;;;25.48;12.40;;;7.50;99.90;;;;;;5033071;28;20025;-45
2021/12/14 06:20:42;;;;;;;20.95;9.35;;;7.50;99.90;;;;;;5032398;28;20037;-41
2021/12/14 06:23:08;;;;;;;21.88;10.82;;;7.50;99.90;;;;;;5031078;28;20071;-42
2021/12/14 06:25:33;;;;;;;19.23;10.15;;;7.50;99.90;;;;;;5033983;28;20026;-44
2021/12/14 06:28:01;;;;;;;23.63;11.68;;;7.50;99.90;;;;;;5033673;28;20538;-43
2021/12/14 06:30:31;;;;;;;18.63;9.35;;;7.50;99.90;;;;;;5033679;28;20032;-41
2021/12/14 06:33:09;;;;;;;18.67;10.38;;;7.50;99.90;;;;;;5033615;28;20396;-44
2021/12/14 06:35:47;;;;;;;23.77;10.13;;;7.50;99.90;;;;;;5032013;28;20045;-43
2021/12/14 06:40:46;;;;;;;20.92;10.45;;;7.50;99.90;;;;;;5033535;28;20381;-45
2021/12/14 06:43:16;;;;;;;20.02;9.98;;;7.50;99.90;;;;;;5033580;28;20017;-43
2021/12/14 06:45:46;;;;;;;21.20;10.02;;;7.50;99.90;;;;;;5033643;28;20021;-43
2021/12/14 06:48:20;;;;;;;22.75;10.68;;;7.40;99.90;;;;;;5033607;28;20029;-43
2021/12/14 06:50:51;;;;;;;19.58;10.63;;;7.50;99.90;;;;;;5032783;28;20095;-43
2021/12/14 06:53:18;;;;;;;25.60;10.32;;;7.40;99.90;;;;;;5028255;28;20040;-41
2021/12/14 06:55:46;;;;;;;21.20;10.40;;;7.40;99.90;;;;;;5023021;28;20492;-43
2021/12/14 06:58:18;;;;;;;19.02;10.20;;;7.40;99.90;;;;;;5012899;28;20065;-41
2021/12/14 07:01:23;;;;;;;16.25;9.45;;;7.40;99.90;;;;;;5013092;28;20022;-44
2021/12/14 07:03:53;;;;;;;21.02;8.82;;;7.40;99.90;;;;;;4950571;28;20027;-44
2021/12/14 07:06:36;;;;;;;16.80;10.10;;;7.40;99.90;;;;;;5002419;28;20080;-43
2021/12/14 07:09:16;;;;;;;17.45;10.20;;;7.40;99.90;;;;;;5013106;28;20021;-43
2021/12/14 07:11:57;;;;;;;17.80;9.13;;;7.40;99.90;;;;;;5012943;28;20045;-40
2021/12/14 07:14:29;;;;;;;22.98;10.93;;;7.40;99.90;;;;;;5012914;28;20030;-41
2021/12/14 07:16:56;;;;;;;19.42;10.13;;;7.40;99.90;;;;;;5013025;28;20144;-43
2021/12/14 07:19:38;;;;;;;18.20;9.88;;;7.40;99.90;;;;;;5011519;28;20022;-43
2021/12/14 07:22:05;;;;;;;17.15;8.65;;;7.40;99.90;;;;;;5012799;28;20068;-41
2021/12/14 07:24:34;;;;;;;22.67;10.63;;;7.40;99.90;;;;;;5012787;28;20026;-41
2021/12/14 07:27:32;;;;;;;20.02;9.65;;;7.40;99.90;;;;;;5012832;28;20029;-44
2021/12/14 07:30:13;;;;;;;19.20;9.50;;;7.40;99.90;;;;;;4962697;28;20461;-42
2021/12/14 07:32:42;;;;;;;22.25;10.90;;;7.40;99.90;;;;;;5012624;28;20026;-43
2021/12/14 07:35:27;;;;;;;19.90;9.82;;;7.40;99.90;;;;;;4993449;28;20037;-41
2021/12/14 07:37:56;;;;;;;25.42;11.32;;;7.40;99.90;;;;;;5012643;28;20030;-41
2021/12/14 07:40:24;;;;;;;21.90;10.82;;;7.30;99.90;;;;;;4995072;28;20026;-42
2021/12/14 07:43:06;;;;;;;22.25;9.70;;;7.40;99.90;;;;;;5012237;28;20026;-41
2021/12/14 07:45:32;;;;;;;19.83;9.60;;;7.40;99.90;;;;;;5012417;28;20018;-43
2021/12/14 07:47:57;;;;;;;20.42;9.90;;;7.40;99.90;;;;;;5011706;28;20084;-41
2021/12/14 07:50:37;;;;;;;18.35;9.32;;;7.40;99.90;;;;;;5011107;28;20465;-43
2021/12/14 07:53:03;;;;;;;22.35;9.68;;;7.40;99.90;;;;;;5011674;28;20355;-44
2021/12/14 07:55:28;;;;;;;18.50;9.75;;;7.40;99.90;;;;;;5011460;28;20053;-41
2021/12/14 07:57:54;;;;;;;22.80;10.02;;;7.40;99.90;;;;;;5011028;28;20037;-42
2021/12/14 08:00:25;;;;;;;24.27;10.70;;;7.40;99.90;;;;;;4994532;28;20022;-45
2021/12/14 08:02:54;;;;;;;20.00;9.68;;;7.40;99.90;;;;;;5011941;28;20026;-41
2021/12/14 08:05:39;;;;;;;20.55;8.85;;;7.40;99.90;;;;;;5010943;28;20057;-44
2021/12/14 08:08:10;;;;;;;16.92;9.07;;;7.40;99.90;;;;;;5012096;28;20030;-42
2021/12/14 08:10:40;;;;;;;17.63;9.18;;;7.40;99.90;;;;;;5012062;28;20054;-41
2021/12/14 08:13:15;;;;;;;17.75;8.57;;;7.50;99.90;;;;;;5012222;28;20026;-45
2021/12/14 08:15:49;;;;;;;16.85;9.10;;;7.50;99.90;;;;;;5012450;28;20045;-42
2021/12/14 08:18:36;;;;;;;15.13;8.65;;;7.50;99.90;;;;;;5012260;28;20045;-43
2021/12/14 08:21:12;;;;;;;15.70;8.70;;;7.50;99.90;;;;;;5007448;28;20485;-46
2021/12/14 08:23:41;;;;;;;18.00;8.68;;;7.50;99.90;;;;;;5012057;28;20533;-42
2021/12/14 08:26:15;;;;;;;16.48;9.00;;;7.50;99.90;;;;;;5012067;28;20034;-43
2021/12/14 08:28:49;;;;;;;18.58;9.15;;;7.50;99.90;;;;;;5012125;28;20045;-41
2021/12/14 08:31:15;;;;;;;28.73;10.13;;;7.50;99.90;;;;;;5011968;28;20101;-44
2021/12/14 08:33:41;;;;;;;20.85;10.60;;;7.60;99.90;;;;;;5010721;28;20309;-43
2021/12/14 08:36:11;;;;;;;46.65;10.60;;;7.60;99.90;;;;;;5011811;28;20030;-40
2021/12/14 08:38:37;;;;;;;22.63;8.63;;;7.60;99.90;;;;;;5012006;28;20030;-42
2021/12/14 08:41:16;;;;;;;24.73;10.60;;;7.60;99.90;;;;;;5011656;28;20061;-45
2021/12/14 08:43:48;;;;;;;19.95;8.73;;;7.60;99.90;;;;;;5011858;28;20022;-44
2021/12/14 08:46:20;;;;;;;18.83;9.05;;;7.60;99.90;;;;;;5011922;28;20019;-41
2021/12/14 08:48:50;;;;;;;18.23;7.97;;;7.60;99.90;;;;;;5010012;28;20400;-44
2021/12/14 08:51:20;;;;;;;17.83;9.30;;;7.60;99.90;;;;;;5011695;28;20436;-44
2021/12/14 08:53:49;;;;;;;16.15;9.50;;;7.70;99.90;;;;;;5011883;28;20057;-41
2021/12/14 08:56:16;;;;;;;23.90;9.77;;;7.60;99.90;;;;;;5011735;28;20074;-42
2021/12/14 08:58:42;;;;;;;21.38;10.30;;;7.70;99.90;;;;;;5012094;28;20030;-43
2021/12/14 09:01:15;;;;;;;17.50;8.73;;;7.70;99.90;;;;;;5015201;28;20037;-43
2021/12/14 09:03:46;;;;;;;14.50;7.35;;;7.70;99.90;;;;;;5014150;28;20029;-41
2021/12/14 09:06:20;;;;;;;14.20;7.43;;;7.60;99.90;;;;;;5015139;28;20022;-42
2021/12/14 09:08:47;;;;;;;14.40;8.13;;;7.60;99.90;;;;;;5015217;28;20084;-41
2021/12/14 09:11:16;;;;;;;15.40;8.13;;;7.60;99.90;;;;;;5015311;28;20245;-42
2021/12/14 09:13:41;;;;;;;17.48;9.25;;;7.60;99.90;;;;;;5015372;28;20026;-41
2021/12/14 09:16:15;;;;;;;17.02;8.55;;;7.60;99.90;;;;;;5015022;28;20474;-41
2021/12/14 09:18:44;;;;;;;16.58;8.77;;;7.60;99.90;;;;;;5013892;28;20037;-41
2021/12/14 09:21:16;;;;;;;19.50;9.00;;;7.60;99.90;;;;;;5014846;28;20416;-46
2021/12/14 09:23:47;;;;;;;15.68;8.35;;;7.60;99.90;;;;;;5014845;28;20041;-43
2021/12/14 09:26:19;;;;;;;17.00;7.70;;;7.70;99.90;;;;;;5014976;28;20029;-45
2021/12/14 09:28:45;;;;;;;13.30;7.13;;;7.70;99.90;;;;;;5014903;28;20073;-41
2021/12/14 09:31:25;;;;;;;13.98;8.02;;;7.70;99.90;;;;;;5014692;28;20033;-41
2021/12/14 09:33:54;;;;;;;15.48;7.80;;;7.70;99.90;;;;;;5013505;28;20111;-43
2021/12/14 09:36:20;;;;;;;18.63;7.85;;;7.70;99.90;;;;;;5014683;28;20406;-46
2021/12/14 09:38:57;;;;;;;16.05;8.20;;;7.70;99.90;;;;;;5014805;28;20029;-44
2021/12/14 09:41:27;;;;;;;14.60;7.25;;;7.80;99.90;;;;;;5014834;28;20032;-44
2021/12/14 09:43:54;;;;;;;14.07;7.55;;;7.80;99.90;;;;;;5014445;28;20069;-44
2021/12/14 09:46:21;;;;;;;15.02;8.27;;;7.80;99.90;;;;;;5014590;28;20466;-41
2021/12/14 09:48:54;;;;;;;15.48;8.27;;;7.80;99.90;;;;;;5012948;28;20025;-46
2021/12/14 09:51:31;;;;;;;14.70;8.35;;;7.80;99.90;;;;;;5014434;28;20121;-47
2021/12/14 09:54:01;;;;;;;14.90;7.28;;;7.80;99.90;;;;;;5014350;28;20045;-42
2021/12/14 09:56:33;;;;;;;16.70;8.27;;;7.80;99.90;;;;;;5014386;28;20029;-42
2021/12/14 09:59:03;;;;;;;14.70;7.65;;;7.80;99.90;;;;;;5014410;28;20026;-44
2021/12/14 10:01:34;;;;;;;14.00;7.28;;;7.80;99.90;;;;;;5014497;28;20030;-45
2021/12/14 10:04:08;;;;;;;13.43;7.18;;;7.80;99.90;;;;;;5012850;28;20036;-45
2021/12/14 10:06:34;;;;;;;13.27;7.28;;;7.80;99.90;;;;;;5014129;28;20026;-41
2021/12/14 10:09:06;;;;;;;14.98;7.97;;;7.80;99.90;;;;;;5014015;28;20029;-47
2021/12/14 10:12:16;;;;;;;17.30;8.43;;;7.90;99.90;;;;;;5013165;28;20549;-46
2021/12/14 10:14:40;;;;;;;15.32;7.50;;;7.90;99.90;;;;;;5012722;28;20030;-46
2021/12/14 10:17:09;;;;;;;17.55;8.68;;;7.90;99.90;;;;;;5013878;28;20026;-49
2021/12/14 10:19:37;;;;;;;14.25;8.82;;;7.90;99.90;;;;;;5012895;28;20101;-43
2021/12/14 10:22:26;;;;;;;16.25;7.80;;;7.90;99.90;;;;;;5013414;28;20227;-45
2021/12/14 10:24:57;;;;;;;16.38;8.48;;;7.90;99.90;;;;;;5013900;28;20057;-46
2021/12/14 10:27:25;;;;;;;17.58;8.73;;;7.90;99.90;;;;;;5014004;28;20374;-46
2021/12/14 10:29:51;;;;;;;14.18;8.05;;;7.90;99.90;;;;;;5013938;28;20054;-44
2021/12/14 10:32:22;;;;;;;14.65;7.72;;;7.90;99.90;;;;;;5013593;28;20500;-45
2021/12/14 10:34:52;;;;;;;12.30;7.55;;;7.90;99.90;;;;;;5012408;28;20421;-43
2021/12/14 10:37:27;;;;;;;12.45;7.95;;;8.00;99.90;;;;;;5013666;28;20077;-46
2021/12/14 10:45:28;;;;;;;12.52;7.45;;;8.00;99.90;;;;;;5013983;28;20029;-44
2021/12/14 10:47:55;;;;;;;19.30;8.75;;;8.00;99.90;;;;;;5013412;28;20029;-44
2021/12/14 10:50:25;;;;;;;13.43;7.50;;;8.00;99.90;;;;;;5011705;28;20092;-43
2021/12/14 10:52:51;;;;;;;12.82;8.20;;;8.00;99.90;;;;;;5013433;28;20424;-49
2021/12/14 10:55:27;;;;;;;15.15;7.97;;;8.00;99.90;;;;;;5013194;28;20030;-44
2021/12/14 10:57:54;;;;;;;16.48;8.43;;;8.00;99.90;;;;;;5013497;28;20223;-44
2021/12/14 11:00:31;;;;;;;17.30;8.88;;;8.10;99.90;;;;;;5013046;28;20030;-42
2021/12/14 11:03:04;;;;;;;15.70;9.13;;;8.00;99.90;;;;;;5012899;28;20030;-44
2021/12/14 11:05:31;;;;;;;15.52;8.63;;;8.00;99.90;;;;;;5011983;28;20018;-42
2021/12/14 11:07:57;;;;;;;12.50;7.68;;;8.10;99.90;;;;;;5012697;28;20030;-43
2021/12/14 11:10:30;;;;;;;12.20;6.90;;;8.20;99.90;;;;;;5013067;28;20083;-43
2021/12/14 11:13:09;;;;;;;21.48;7.80;;;8.30;99.90;;;;;;5013007;28;20025;-45
2021/12/14 11:15:44;;;;;;;170.82;23.42;;;8.30;99.90;;;;;;5013019;28;20033;-46
2021/12/14 11:18:17;;;;;;;93.53;16.60;;;8.40;99.90;;;;;;5012771;28;20041;-44
2021/12/14 11:20:51;;;;;;;32.50;9.48;;;8.40;99.90;;;;;;5012805;28;20029;-44
2021/12/14 11:23:33;;;;;;;15.27;7.03;;;8.50;99.90;;;;;;5012503;28;20505;-44
2021/12/14 11:26:14;;;;;;;13.90;7.07;;;8.60;99.90;;;;;;5012890;28;20029;-42
2021/12/14 11:28:44;;;;;;;10.38;6.50;;;8.60;99.90;;;;;;5012665;28;20037;-45
2021/12/14 11:31:28;;;;;;;10.98;7.20;;;8.60;99.90;;;;;;5012759;28;20104;-42
2021/12/14 11:34:05;;;;;;;15.73;7.13;;;8.70;99.90;;;;;;5011624;28;20034;-44
2021/12/14 11:36:37;;;;;;;12.77;7.15;;;8.70;99.90;;;;;;5012662;28;20124;-42
2021/12/14 11:39:24;;;;;;;12.25;6.65;;;8.70;99.90;;;;;;5012471;28;20037;-43
2021/12/14 11:41:53;;;;;;;11.50;7.22;;;8.70;99.90;;;;;;5012645;28;20026;-49
2021/12/14 11:44:24;;;;;;;10.82;7.18;;;8.80;99.90;;;;;;5012224;28;20018;-43
2021/12/14 11:49:57;;;;;;;10.88;6.65;;;8.90;99.90;;;;;;5003949;28;20065;-44
2021/12/14 11:52:40;;;;;;;12.57;7.10;;;9.00;99.90;;;;;;5012208;28;20041;-43
2021/12/14 11:56:05;;;;;;;13.77;8.20;;;9.00;99.90;;;;;;5012297;28;20026;-42
2021/12/14 11:58:38;;;;;;;11.55;7.00;;;9.10;99.90;;;;;;4913757;29;20440;-44
2021/12/14 12:01:19;;;;;;;13.43;7.97;;;9.10;99.90;;;;;;4913608;29;20504;-43
2021/12/14 12:03:48;;;;;;;13.52;7.10;;;9.20;99.90;;;;;;4987597;28;20476;-44
2021/12/14 12:06:35;;;;;;;13.73;7.70;;;9.20;99.90;;;;;;5011939;28;20026;-49
2021/12/14 12:11:59;;;;;;;12.27;6.88;;;9.30;99.90;;;;;;5012286;28;20030;-46
2021/12/14 12:14:28;;;;;;;14.65;8.18;;;9.30;99.90;;;;;;5012132;28;20485;-45
2021/12/14 12:17:08;;;;;;;12.48;7.63;;;9.40;99.90;;;;;;5011931;28;20038;-43
2021/12/14 12:19:34;;;;;;;14.45;7.75;;;9.40;99.90;;;;;;5011046;28;20026;-43
2021/12/14 12:22:15;;;;;;;11.02;7.43;;;9.40;99.90;;;;;;5012025;28;20034;-42
2021/12/14 12:24:53;;;;;;;11.35;7.20;;;9.40;99.90;;;;;;5011813;28;20029;-42
2021/12/14 12:27:26;;;;;;;13.10;7.78;;;9.40;99.90;;;;;;5011999;28;20477;-42
2021/12/14 12:30:15;;;;;;;13.93;7.85;;;9.40;99.90;;;;;;4994634;28;20465;-44
2021/12/14 12:32:40;;;;;;;11.25;7.40;;;9.40;99.90;;;;;;5012034;28;20024;-44
2021/12/14 12:35:22;;;;;;;12.27;7.43;;;9.30;99.90;;;;;;5013819;28;20022;-44
2021/12/14 12:37:48;;;;;;;16.30;8.23;;;9.30;99.90;;;;;;5015979;28;20030;-44
2021/12/14 12:40:19;;;;;;;14.23;7.45;;;9.30;99.90;;;;;;5015612;28;20028;-42
2021/12/14 12:42:45;;;;;;;26.38;7.75;;;9.20;99.90;;;;;;5015598;28;20042;-46
2021/12/14 12:45:33;;;;;;;15.45;7.93;;;9.20;99.90;;;;;;4998165;28;20064;-44
2021/12/14 12:48:01;;;;;;;11.07;7.50;;;9.20;99.90;;;;;;5015526;28;20022;-45
2021/12/14 12:50:28;;;;;;;12.75;7.90;;;9.20;99.90;;;;;;5014131;28;20539;-42
2021/12/14 12:52:54;;;;;;;13.80;7.88;;;9.20;99.90;;;;;;5015339;28;20033;-46
2021/12/14 12:55:31;;;;;;;11.98;7.18;;;9.20;99.90;;;;;;5015494;28;20068;-44
2021/12/14 12:58:10;;;;;;;15.52;8.32;;;9.20;99.90;;;;;;5015570;28;20030;-42
2021/12/14 13:00:37;;;;;;;17.60;9.07;;;9.30;99.90;;;;;;5015217;28;20586;-42
2021/12/14 13:03:14;;;;;;;12.85;7.57;;;9.30;99.90;;;;;;5011854;28;20017;-46
2021/12/14 13:05:53;;;;;;;10.90;7.60;;;9.30;99.90;;;;;;5015451;28;20053;-46
2021/12/14 13:08:26;;;;;;;13.13;6.95;;;9.30;99.90;;;;;;5014910;28;20022;-44
2021/12/14 13:11:12;;;;;;;10.20;6.97;;;9.30;99.90;;;;;;5015285;28;20030;-45
2021/12/14 13:13:51;;;;;;;13.18;8.07;;;9.30;99.90;;;;;;5015267;28;20022;-45
2021/12/14 13:16:29;;;;;;;14.70;8.05;;;9.30;99.90;;;;;;5015011;28;20037;-43
2021/12/14 13:19:10;;;;;;;12.27;6.95;;;9.20;99.90;;;;;;5014432;28;20466;-41
2021/12/14 13:21:46;;;;;;;11.60;7.32;;;9.20;99.90;;;;;;5014905;28;20036;-43
2021/12/14 13:24:29;;;;;;;12.48;7.60;;;9.20;99.90;;;;;;5014989;28;20018;-45
2021/12/14 13:27:05;;;;;;;13.00;7.25;;;9.20;99.90;;;;;;5014917;28;20028;-46
2021/12/14 13:29:44;;;;;;;12.68;7.38;;;9.30;99.90;;;;;;5014953;28;20030;-42
2021/12/14 13:32:23;;;;;;;14.30;7.25;;;9.20;99.90;;;;;;5014841;28;20053;-41
2021/12/14 13:35:11;;;;;;;13.60;8.02;;;9.20;99.90;;;;;;5013505;28;20029;-42
2021/12/14 13:37:44;;;;;;;14.70;7.28;;;9.20;99.90;;;;;;5014618;28;20042;-42
2021/12/14 13:40:12;;;;;;;11.75;7.88;;;9.20;99.90;;;;;;5014466;28;20481;-43
2021/12/14 13:43:02;;;;;;;11.95;7.38;;;9.20;99.90;;;;;;5014480;28;20041;-45
2021/12/14 13:45:31;;;;;;;10.68;6.88;;;9.20;99.90;;;;;;4964102;28;20038;-42